sensor_id;sensor_type;location;lat;lon;timestamp;P1;durP1;ratioP1;P2;durP2;ratioP2
82992;SDS011;72811;50.844;3.228;2023-10-13T00:01:47;12.18;;;4.10;;
82992;SDS011;72811;50.844;3.228;2023-10-13T00:04:17;8.07;;;3.10;;
82992;SDS011;72811;50.844;3.228;2023-10-13T00:06:47;10.45;;;3.80;;
82992;SDS011;72811;50.844;3.228;2023-10-13T00:09:13;7.63;;;3.13;;
82992;SDS011;72811;50.844;3.228;2023-10-13T00:11:42;7.30;;;3.20;;
82992;SDS011;72811;50.844;3.228;2023-10-13T00:14:13;13.02;;;3.22;;
82992;SDS011;72811;50.844;3.228;2023-10-13T00:16:42;9.80;;;3.70;;
82992;SDS011;72811;50.844;3.228;2023-10-13T00:19:26;10.30;;;3.85;;
82992;SDS011;72811;50.844;3.228;2023-10-13T00:21:53;8.57;;;3.28;;
82992;SDS011;72811;50.844;3.228;2023-10-13T00:24:21;7.95;;;3.53;;
82992;SDS011;72811;50.844;3.228;2023-10-13T00:26:48;9.60;;;4.20;;
82992;SDS011;72811;50.844;3.228;2023-10-13T00:29:14;9.30;;;3.45;;
82992;SDS011;72811;50.844;3.228;2023-10-13T00:31:42;7.25;;;3.38;;
82992;SDS011;72811;50.844;3.228;2023-10-13T00:34:09;13.73;;;3.63;;
82992;SDS011;72811;50.844;3.228;2023-10-13T00:37:04;7.82;;;3.20;;
82992;SDS011;72811;50.844;3.228;2023-10-13T00:39:53;7.10;;;3.50;;
82992;SDS011;72811;50.844;3.228;2023-10-13T00:42:22;10.48;;;3.38;;
82992;SDS011;72811;50.844;3.228;2023-10-13T00:45:12;10.07;;;3.38;;
82992;SDS011;72811;50.844;3.228;2023-10-13T00:47:42;8.45;;;3.60;;
82992;SDS011;72811;50.844;3.228;2023-10-13T00:50:14;9.85;;;3.38;;
82992;SDS011;72811;50.844;3.228;2023-10-13T00:52:43;9.18;;;3.30;;
82992;SDS011;72811;50.844;3.228;2023-10-13T00:55:12;8.23;;;3.50;;
82992;SDS011;72811;50.844;3.228;2023-10-13T00:57:42;10.13;;;3.72;;
82992;SDS011;72811;50.844;3.228;2023-10-13T01:00:08;8.05;;;3.17;;
82992;SDS011;72811;50.844;3.228;2023-10-13T01:02:53;6.63;;;3.15;;
82992;SDS011;72811;50.844;3.228;2023-10-13T01:05:25;7.78;;;3.35;;
82992;SDS011;72811;50.844;3.228;2023-10-13T01:07:51;10.68;;;3.40;;
82992;SDS011;72811;50.844;3.228;2023-10-13T01:10:20;7.88;;;3.65;;
82992;SDS011;72811;50.844;3.228;2023-10-13T01:12:52;7.78;;;3.67;;
82992;SDS011;72811;50.844;3.228;2023-10-13T01:15:18;12.52;;;3.90;;
82992;SDS011;72811;50.844;3.228;2023-10-13T01:17:48;16.58;;;4.00;;
82992;SDS011;72811;50.844;3.228;2023-10-13T01:20:14;12.98;;;4.47;;
82992;SDS011;72811;50.844;3.228;2023-10-13T01:22:51;7.18;;;4.05;;
82992;SDS011;72811;50.844;3.228;2023-10-13T01:25:24;11.15;;;4.32;;
82992;SDS011;72811;50.844;3.228;2023-10-13T01:27:56;8.00;;;4.38;;
82992;SDS011;72811;50.844;3.228;2023-10-13T01:30:26;16.70;;;5.97;;
82992;SDS011;72811;50.844;3.228;2023-10-13T01:32:52;12.43;;;6.82;;
82992;SDS011;72811;50.844;3.228;2023-10-13T01:35:19;14.93;;;7.25;;
82992;SDS011;72811;50.844;3.228;2023-10-13T01:38:00;14.82;;;8.70;;
82992;SDS011;72811;50.844;3.228;2023-10-13T01:40:25;16.90;;;9.18;;
82992;SDS011;72811;50.844;3.228;2023-10-13T01:42:54;17.27;;;10.02;;
82992;SDS011;72811;50.844;3.228;2023-10-13T01:45:20;18.15;;;11.48;;
82992;SDS011;72811;50.844;3.228;2023-10-13T01:47:46;18.23;;;11.40;;
82992;SDS011;72811;50.844;3.228;2023-10-13T01:50:15;28.00;;;14.07;;
82992;SDS011;72811;50.844;3.228;2023-10-13T01:52:54;25.65;;;14.95;;
82992;SDS011;72811;50.844;3.228;2023-10-13T01:55:37;25.77;;;15.48;;
82992;SDS011;72811;50.844;3.228;2023-10-13T01:58:08;32.03;;;17.95;;
82992;SDS011;72811;50.844;3.228;2023-10-13T02:00:47;34.72;;;18.38;;
82992;SDS011;72811;50.844;3.228;2023-10-13T02:03:15;31.92;;;19.00;;
82992;SDS011;72811;50.844;3.228;2023-10-13T02:05:44;35.17;;;20.15;;
82992;SDS011;72811;50.844;3.228;2023-10-13T02:08:15;31.90;;;19.60;;
82992;SDS011;72811;50.844;3.228;2023-10-13T02:13:17;39.78;;;19.55;;
82992;SDS011;72811;50.844;3.228;2023-10-13T02:15:45;32.97;;;18.75;;
82992;SDS011;72811;50.844;3.228;2023-10-13T02:18:13;28.92;;;18.63;;
82992;SDS011;72811;50.844;3.228;2023-10-13T02:20:45;30.95;;;17.75;;
82992;SDS011;72811;50.844;3.228;2023-10-13T02:23:19;28.88;;;18.50;;
82992;SDS011;72811;50.844;3.228;2023-10-13T02:25:46;31.88;;;18.58;;
82992;SDS011;72811;50.844;3.228;2023-10-13T02:28:13;28.38;;;17.30;;
82992;SDS011;72811;50.844;3.228;2023-10-13T02:30:40;26.38;;;16.23;;
82992;SDS011;72811;50.844;3.228;2023-10-13T02:33:10;29.40;;;16.15;;
82992;SDS011;72811;50.844;3.228;2023-10-13T02:35:37;28.42;;;15.52;;
82992;SDS011;72811;50.844;3.228;2023-10-13T02:38:07;25.30;;;14.45;;
82992;SDS011;72811;50.844;3.228;2023-10-13T02:40:37;24.52;;;14.60;;
82992;SDS011;72811;50.844;3.228;2023-10-13T02:43:07;24.33;;;14.82;;
82992;SDS011;72811;50.844;3.228;2023-10-13T02:45:33;28.08;;;13.73;;
82992;SDS011;72811;50.844;3.228;2023-10-13T02:48:03;24.05;;;13.82;;
82992;SDS011;72811;50.844;3.228;2023-10-13T02:50:42;23.70;;;13.32;;
82992;SDS011;72811;50.844;3.228;2023-10-13T02:53:09;28.20;;;12.35;;
82992;SDS011;72811;50.844;3.228;2023-10-13T02:55:38;19.85;;;12.10;;
82992;SDS011;72811;50.844;3.228;2023-10-13T02:58:15;22.42;;;11.77;;
82992;SDS011;72811;50.844;3.228;2023-10-13T03:00:41;24.27;;;11.93;;
82992;SDS011;72811;50.844;3.228;2023-10-13T03:03:07;26.13;;;12.80;;
82992;SDS011;72811;50.844;3.228;2023-10-13T03:05:36;25.15;;;12.02;;
82992;SDS011;72811;50.844;3.228;2023-10-13T03:08:05;22.02;;;11.57;;
82992;SDS011;72811;50.844;3.228;2023-10-13T03:10:31;21.05;;;12.25;;
82992;SDS011;72811;50.844;3.228;2023-10-13T03:12:57;18.73;;;11.27;;
82992;SDS011;72811;50.844;3.228;2023-10-13T03:15:24;20.73;;;11.88;;
82992;SDS011;72811;50.844;3.228;2023-10-13T03:17:56;19.58;;;11.55;;
82992;SDS011;72811;50.844;3.228;2023-10-13T03:20:25;24.52;;;11.77;;
82992;SDS011;72811;50.844;3.228;2023-10-13T03:23:00;21.17;;;11.80;;
82992;SDS011;72811;50.844;3.228;2023-10-13T03:25:26;24.50;;;11.63;;
82992;SDS011;72811;50.844;3.228;2023-10-13T03:27:55;24.40;;;10.90;;
82992;SDS011;72811;50.844;3.228;2023-10-13T03:30:24;20.10;;;10.63;;
82992;SDS011;72811;50.844;3.228;2023-10-13T03:33:13;23.73;;;10.73;;
82992;SDS011;72811;50.844;3.228;2023-10-13T03:35:51;20.38;;;10.43;;
82992;SDS011;72811;50.844;3.228;2023-10-13T03:41:20;20.25;;;9.50;;
82992;SDS011;72811;50.844;3.228;2023-10-13T03:43:55;22.95;;;9.38;;
82992;SDS011;72811;50.844;3.228;2023-10-13T03:46:42;18.52;;;9.32;;
82992;SDS011;72811;50.844;3.228;2023-10-13T03:49:22;18.08;;;8.65;;
82992;SDS011;72811;50.844;3.228;2023-10-13T03:51:56;15.48;;;8.32;;
82992;SDS011;72811;50.844;3.228;2023-10-13T03:57:45;23.15;;;8.77;;
82992;SDS011;72811;50.844;3.228;2023-10-13T04:00:25;15.18;;;8.85;;
82992;SDS011;72811;50.844;3.228;2023-10-13T04:05:34;21.50;;;9.88;;
82992;SDS011;72811;50.844;3.228;2023-10-13T04:08:06;18.77;;;9.18;;
82992;SDS011;72811;50.844;3.228;2023-10-13T04:10:54;18.40;;;9.13;;
82992;SDS011;72811;50.844;3.228;2023-10-13T04:16:20;18.77;;;7.65;;
82992;SDS011;72811;50.844;3.228;2023-10-13T04:18:49;28.50;;;10.48;;
82992;SDS011;72811;50.844;3.228;2023-10-13T04:21:33;24.13;;;8.40;;
82992;SDS011;72811;50.844;3.228;2023-10-13T04:24:07;20.83;;;8.30;;
82992;SDS011;72811;50.844;3.228;2023-10-13T04:26:44;17.92;;;8.10;;
82992;SDS011;72811;50.844;3.228;2023-10-13T04:32:18;23.80;;;9.63;;
82992;SDS011;72811;50.844;3.228;2023-10-13T04:34:59;19.10;;;7.40;;
82992;SDS011;72811;50.844;3.228;2023-10-13T04:37:37;16.38;;;7.28;;
82992;SDS011;72811;50.844;3.228;2023-10-13T04:40:18;21.02;;;8.68;;
82992;SDS011;72811;50.844;3.228;2023-10-13T04:42:49;18.60;;;6.80;;
82992;SDS011;72811;50.844;3.228;2023-10-13T04:45:20;24.98;;;9.05;;
82992;SDS011;72811;50.844;3.228;2023-10-13T04:47:55;20.70;;;9.18;;
82992;SDS011;72811;50.844;3.228;2023-10-13T04:50:39;22.13;;;8.48;;
82992;SDS011;72811;50.844;3.228;2023-10-13T04:56:00;20.17;;;8.77;;
82992;SDS011;72811;50.844;3.228;2023-10-13T04:58:47;18.83;;;8.35;;
82992;SDS011;72811;50.844;3.228;2023-10-13T05:01:33;26.38;;;9.18;;
82992;SDS011;72811;50.844;3.228;2023-10-13T05:04:24;24.85;;;8.18;;
82992;SDS011;72811;50.844;3.228;2023-10-13T05:07:16;17.35;;;8.07;;
82992;SDS011;72811;50.844;3.228;2023-10-13T05:10:00;21.20;;;7.35;;
82992;SDS011;72811;50.844;3.228;2023-10-13T05:12:47;20.30;;;8.27;;
82992;SDS011;72811;50.844;3.228;2023-10-13T05:15:32;17.73;;;8.18;;
82992;SDS011;72811;50.844;3.228;2023-10-13T05:21:06;19.75;;;7.70;;
82992;SDS011;72811;50.844;3.228;2023-10-13T05:23:52;22.65;;;8.73;;
82992;SDS011;72811;50.844;3.228;2023-10-13T05:26:37;17.13;;;8.25;;
82992;SDS011;72811;50.844;3.228;2023-10-13T05:29:22;20.83;;;9.02;;
82992;SDS011;72811;50.844;3.228;2023-10-13T05:32:06;18.00;;;8.40;;
82992;SDS011;72811;50.844;3.228;2023-10-13T05:34:52;17.75;;;7.68;;
82992;SDS011;72811;50.844;3.228;2023-10-13T05:37:36;20.95;;;7.13;;
82992;SDS011;72811;50.844;3.228;2023-10-13T05:40:21;22.55;;;7.65;;
82992;SDS011;72811;50.844;3.228;2023-10-13T05:43:05;16.95;;;7.68;;
82992;SDS011;72811;50.844;3.228;2023-10-13T05:45:49;18.17;;;6.75;;
82992;SDS011;72811;50.844;3.228;2023-10-13T05:48:41;16.83;;;8.13;;
82992;SDS011;72811;50.844;3.228;2023-10-13T05:51:18;21.23;;;8.02;;
82992;SDS011;72811;50.844;3.228;2023-10-13T05:54:03;16.13;;;7.65;;
82992;SDS011;72811;50.844;3.228;2023-10-13T05:59:27;16.80;;;6.90;;
82992;SDS011;72811;50.844;3.228;2023-10-13T06:02:15;17.10;;;5.95;;
82992;SDS011;72811;50.844;3.228;2023-10-13T06:05:10;17.33;;;6.32;;
82992;SDS011;72811;50.844;3.228;2023-10-13T06:07:55;13.05;;;5.88;;
82992;SDS011;72811;50.844;3.228;2023-10-13T06:10:41;17.77;;;5.75;;
82992;SDS011;72811;50.844;3.228;2023-10-13T06:13:27;18.17;;;5.63;;
82992;SDS011;72811;50.844;3.228;2023-10-13T06:16:12;18.08;;;5.22;;
82992;SDS011;72811;50.844;3.228;2023-10-13T06:18:58;11.65;;;5.00;;
82992;SDS011;72811;50.844;3.228;2023-10-13T06:21:43;15.73;;;6.45;;
82992;SDS011;72811;50.844;3.228;2023-10-13T06:24:33;18.80;;;6.53;;
82992;SDS011;72811;50.844;3.228;2023-10-13T06:27:18;11.98;;;5.22;;
82992;SDS011;72811;50.844;3.228;2023-10-13T06:30:04;13.18;;;5.82;;
82992;SDS011;72811;50.844;3.228;2023-10-13T06:32:32;14.30;;;5.18;;
82992;SDS011;72811;50.844;3.228;2023-10-13T06:35:04;14.82;;;4.47;;
82992;SDS011;72811;50.844;3.228;2023-10-13T06:37:43;13.20;;;4.82;;
82992;SDS011;72811;50.844;3.228;2023-10-13T06:40:11;15.85;;;4.85;;
82992;SDS011;72811;50.844;3.228;2023-10-13T06:45:36;18.00;;;5.18;;
82992;SDS011;72811;50.844;3.228;2023-10-13T06:48:02;11.57;;;4.65;;
82992;SDS011;72811;50.844;3.228;2023-10-13T06:50:30;10.00;;;5.35;;
82992;SDS011;72811;50.844;3.228;2023-10-13T06:53:04;13.80;;;4.35;;
82992;SDS011;72811;50.844;3.228;2023-10-13T06:55:31;14.55;;;5.38;;
82992;SDS011;72811;50.844;3.228;2023-10-13T06:58:05;19.75;;;5.40;;
82992;SDS011;72811;50.844;3.228;2023-10-13T07:00:32;22.42;;;5.88;;
82992;SDS011;72811;50.844;3.228;2023-10-13T07:03:04;16.48;;;5.13;;
82992;SDS011;72811;50.844;3.228;2023-10-13T07:05:44;18.70;;;5.60;;
82992;SDS011;72811;50.844;3.228;2023-10-13T07:08:12;14.75;;;4.88;;
82992;SDS011;72811;50.844;3.228;2023-10-13T07:10:56;15.05;;;5.45;;
82992;SDS011;72811;50.844;3.228;2023-10-13T07:13:31;20.67;;;6.00;;
82992;SDS011;72811;50.844;3.228;2023-10-13T07:16:02;16.92;;;6.10;;
82992;SDS011;72811;50.844;3.228;2023-10-13T07:18:34;15.73;;;5.38;;
82992;SDS011;72811;50.844;3.228;2023-10-13T07:21:08;13.05;;;5.35;;
82992;SDS011;72811;50.844;3.228;2023-10-13T07:23:37;15.32;;;5.15;;
82992;SDS011;72811;50.844;3.228;2023-10-13T07:26:04;12.40;;;4.88;;
82992;SDS011;72811;50.844;3.228;2023-10-13T07:28:33;15.90;;;5.30;;
82992;SDS011;72811;50.844;3.228;2023-10-13T07:31:11;24.60;;;5.55;;
82992;SDS011;72811;50.844;3.228;2023-10-13T07:33:38;19.05;;;5.57;;
82992;SDS011;72811;50.844;3.228;2023-10-13T07:36:07;14.07;;;5.18;;
82992;SDS011;72811;50.844;3.228;2023-10-13T07:38:53;20.52;;;5.60;;
82992;SDS011;72811;50.844;3.228;2023-10-13T07:41:45;14.32;;;5.32;;
82992;SDS011;72811;50.844;3.228;2023-10-13T07:44:17;15.77;;;5.45;;
82992;SDS011;72811;50.844;3.228;2023-10-13T07:46:45;13.85;;;5.00;;
82992;SDS011;72811;50.844;3.228;2023-10-13T07:49:28;17.55;;;5.43;;
82992;SDS011;72811;50.844;3.228;2023-10-13T07:52:00;17.58;;;5.90;;
82992;SDS011;72811;50.844;3.228;2023-10-13T07:54:43;20.70;;;5.30;;
82992;SDS011;72811;50.844;3.228;2023-10-13T07:57:09;17.92;;;4.63;;
82992;SDS011;72811;50.844;3.228;2023-10-13T07:59:40;16.95;;;5.18;;
82992;SDS011;72811;50.844;3.228;2023-10-13T08:02:14;19.33;;;5.57;;
82992;SDS011;72811;50.844;3.228;2023-10-13T08:04:58;13.35;;;5.50;;
82992;SDS011;72811;50.844;3.228;2023-10-13T08:07:24;15.32;;;5.00;;
82992;SDS011;72811;50.844;3.228;2023-10-13T08:09:53;10.38;;;4.47;;
82992;SDS011;72811;50.844;3.228;2023-10-13T08:12:19;14.15;;;5.53;;
82992;SDS011;72811;50.844;3.228;2023-10-13T08:14:48;17.25;;;4.90;;
82992;SDS011;72811;50.844;3.228;2023-10-13T08:17:16;18.30;;;5.95;;
82992;SDS011;72811;50.844;3.228;2023-10-13T08:19:44;16.10;;;4.90;;
82992;SDS011;72811;50.844;3.228;2023-10-13T08:22:10;14.13;;;4.90;;
82992;SDS011;72811;50.844;3.228;2023-10-13T08:24:59;15.40;;;5.13;;
82992;SDS011;72811;50.844;3.228;2023-10-13T08:27:46;14.90;;;5.13;;
82992;SDS011;72811;50.844;3.228;2023-10-13T08:33:20;14.98;;;5.80;;
82992;SDS011;72811;50.844;3.228;2023-10-13T08:35:50;13.90;;;5.63;;
82992;SDS011;72811;50.844;3.228;2023-10-13T08:38:44;13.93;;;5.90;;
82992;SDS011;72811;50.844;3.228;2023-10-13T08:41:16;18.17;;;5.57;;
82992;SDS011;72811;50.844;3.228;2023-10-13T08:43:42;16.77;;;6.30;;
82992;SDS011;72811;50.844;3.228;2023-10-13T08:46:10;18.80;;;5.97;;
82992;SDS011;72811;50.844;3.228;2023-10-13T08:48:59;15.88;;;5.43;;
82992;SDS011;72811;50.844;3.228;2023-10-13T08:51:39;18.73;;;5.57;;
82992;SDS011;72811;50.844;3.228;2023-10-13T08:54:15;15.05;;;5.30;;
82992;SDS011;72811;50.844;3.228;2023-10-13T08:56:58;23.03;;;6.80;;
82992;SDS011;72811;50.844;3.228;2023-10-13T08:59:47;15.13;;;5.95;;
82992;SDS011;72811;50.844;3.228;2023-10-13T09:02:22;20.40;;;6.50;;
82992;SDS011;72811;50.844;3.228;2023-10-13T09:05:11;15.45;;;6.63;;
82992;SDS011;72811;50.844;3.228;2023-10-13T09:07:56;13.52;;;5.30;;
82992;SDS011;72811;50.844;3.228;2023-10-13T09:10:34;20.13;;;5.70;;
82992;SDS011;72811;50.844;3.228;2023-10-13T09:13:09;15.27;;;6.00;;
82992;SDS011;72811;50.844;3.228;2023-10-13T09:15:47;13.98;;;5.80;;
82992;SDS011;72811;50.844;3.228;2023-10-13T09:18:25;17.65;;;5.75;;
82992;SDS011;72811;50.844;3.228;2023-10-13T09:21:16;21.17;;;6.57;;
82992;SDS011;72811;50.844;3.228;2023-10-13T09:24:12;12.27;;;5.15;;
82992;SDS011;72811;50.844;3.228;2023-10-13T09:26:51;21.27;;;6.40;;
82992;SDS011;72811;50.844;3.228;2023-10-13T09:29:21;19.92;;;6.32;;
82992;SDS011;72811;50.844;3.228;2023-10-13T09:31:57;18.70;;;5.78;;
82992;SDS011;72811;50.844;3.228;2023-10-13T09:34:28;17.63;;;5.00;;
82992;SDS011;72811;50.844;3.228;2023-10-13T09:37:05;17.40;;;6.57;;
82992;SDS011;72811;50.844;3.228;2023-10-13T09:39:33;16.40;;;5.45;;
82992;SDS011;72811;50.844;3.228;2023-10-13T09:42:09;19.27;;;6.35;;
82992;SDS011;72811;50.844;3.228;2023-10-13T09:44:37;17.90;;;6.18;;
82992;SDS011;72811;50.844;3.228;2023-10-13T09:47:11;18.02;;;6.22;;
82992;SDS011;72811;50.844;3.228;2023-10-13T09:49:45;14.75;;;5.97;;
82992;SDS011;72811;50.844;3.228;2023-10-13T09:52:16;23.67;;;6.72;;
82992;SDS011;72811;50.844;3.228;2023-10-13T09:57:31;11.60;;;6.30;;
82992;SDS011;72811;50.844;3.228;2023-10-13T10:00:19;15.30;;;5.47;;
82992;SDS011;72811;50.844;3.228;2023-10-13T10:03:10;18.25;;;6.00;;
82992;SDS011;72811;50.844;3.228;2023-10-13T10:05:55;20.48;;;6.85;;
82992;SDS011;72811;50.844;3.228;2023-10-13T10:08:39;19.10;;;6.25;;
82992;SDS011;72811;50.844;3.228;2023-10-13T10:11:26;19.15;;;6.95;;
82992;SDS011;72811;50.844;3.228;2023-10-13T10:17:03;20.58;;;6.40;;
82992;SDS011;72811;50.844;3.228;2023-10-13T10:23:06;20.73;;;7.50;;
82992;SDS011;72811;50.844;3.228;2023-10-13T10:25:35;10.55;;;5.10;;
82992;SDS011;72811;50.844;3.228;2023-10-13T10:30:33;21.80;;;6.47;;
82992;SDS011;72811;50.844;3.228;2023-10-13T10:33:00;21.45;;;6.93;;
82992;SDS011;72811;50.844;3.228;2023-10-13T10:35:42;20.60;;;7.03;;
82992;SDS011;72811;50.844;3.228;2023-10-13T10:38:19;23.30;;;7.13;;
82992;SDS011;72811;50.844;3.228;2023-10-13T10:40:57;16.08;;;6.68;;
82992;SDS011;72811;50.844;3.228;2023-10-13T10:43:30;19.88;;;7.03;;
82992;SDS011;72811;50.844;3.228;2023-10-13T10:48:55;20.05;;;7.18;;
82992;SDS011;72811;50.844;3.228;2023-10-13T10:51:27;18.75;;;6.90;;
82992;SDS011;72811;50.844;3.228;2023-10-13T10:53:57;19.95;;;6.93;;
82992;SDS011;72811;50.844;3.228;2023-10-13T10:56:26;22.95;;;6.97;;
82992;SDS011;72811;50.844;3.228;2023-10-13T10:59:13;18.52;;;7.53;;
82992;SDS011;72811;50.844;3.228;2023-10-13T11:01:45;14.25;;;6.13;;
82992;SDS011;72811;50.844;3.228;2023-10-13T11:04:17;17.33;;;6.50;;
82992;SDS011;72811;50.844;3.228;2023-10-13T11:06:50;18.85;;;6.38;;
82992;SDS011;72811;50.844;3.228;2023-10-13T11:09:27;22.67;;;6.90;;
82992;SDS011;72811;50.844;3.228;2023-10-13T11:12:08;13.55;;;6.40;;
82992;SDS011;72811;50.844;3.228;2023-10-13T11:14:42;23.52;;;6.25;;
82992;SDS011;72811;50.844;3.228;2023-10-13T11:17:21;17.40;;;6.60;;
82992;SDS011;72811;50.844;3.228;2023-10-13T11:20:16;19.90;;;7.05;;
82992;SDS011;72811;50.844;3.228;2023-10-13T11:22:49;20.08;;;7.07;;
82992;SDS011;72811;50.844;3.228;2023-10-13T11:25:32;20.70;;;6.15;;
82992;SDS011;72811;50.844;3.228;2023-10-13T11:30:35;18.35;;;6.80;;
82992;SDS011;72811;50.844;3.228;2023-10-13T11:33:04;17.27;;;6.47;;
82992;SDS011;72811;50.844;3.228;2023-10-13T11:35:34;14.00;;;5.57;;
82992;SDS011;72811;50.844;3.228;2023-10-13T11:38:30;16.23;;;6.15;;
82992;SDS011;72811;50.844;3.228;2023-10-13T11:41:05;19.15;;;6.70;;
82992;SDS011;72811;50.844;3.228;2023-10-13T11:46:15;21.48;;;5.57;;
82992;SDS011;72811;50.844;3.228;2023-10-13T11:48:42;13.93;;;5.50;;
82992;SDS011;72811;50.844;3.228;2023-10-13T11:51:10;17.73;;;5.90;;
82992;SDS011;72811;50.844;3.228;2023-10-13T11:53:49;20.33;;;5.88;;
82992;SDS011;72811;50.844;3.228;2023-10-13T11:56:19;19.20;;;6.25;;
82992;SDS011;72811;50.844;3.228;2023-10-13T11:58:49;18.55;;;5.57;;
82992;SDS011;72811;50.844;3.228;2023-10-13T12:01:15;18.63;;;6.57;;
82992;SDS011;72811;50.844;3.228;2023-10-13T12:03:44;12.27;;;5.25;;
82992;SDS011;72811;50.844;3.228;2023-10-13T12:06:32;18.75;;;6.38;;
82992;SDS011;72811;50.844;3.228;2023-10-13T12:09:09;20.73;;;6.93;;
82992;SDS011;72811;50.844;3.228;2023-10-13T12:11:44;19.95;;;6.20;;
82992;SDS011;72811;50.844;3.228;2023-10-13T12:16:46;14.48;;;6.00;;
82992;SDS011;72811;50.844;3.228;2023-10-13T12:19:22;14.73;;;6.18;;
82992;SDS011;72811;50.844;3.228;2023-10-13T12:21:53;18.98;;;5.80;;
82992;SDS011;72811;50.844;3.228;2023-10-13T12:24:22;16.08;;;5.93;;
82992;SDS011;72811;50.844;3.228;2023-10-13T12:27:04;16.20;;;5.45;;
82992;SDS011;72811;50.844;3.228;2023-10-13T12:29:46;15.48;;;5.93;;
82992;SDS011;72811;50.844;3.228;2023-10-13T12:32:22;12.07;;;5.82;;
82992;SDS011;72811;50.844;3.228;2023-10-13T12:34:50;22.92;;;5.65;;
82992;SDS011;72811;50.844;3.228;2023-10-13T12:37:25;13.50;;;5.47;;
82992;SDS011;72811;50.844;3.228;2023-10-13T12:40:08;14.10;;;5.20;;
82992;SDS011;72811;50.844;3.228;2023-10-13T12:42:55;16.27;;;5.32;;
82992;SDS011;72811;50.844;3.228;2023-10-13T12:45:43;11.88;;;5.28;;
82992;SDS011;72811;50.844;3.228;2023-10-13T12:48:32;19.45;;;5.75;;
82992;SDS011;72811;50.844;3.228;2023-10-13T12:51:18;15.50;;;5.68;;
82992;SDS011;72811;50.844;3.228;2023-10-13T12:53:57;20.87;;;5.87;;
82992;SDS011;72811;50.844;3.228;2023-10-13T12:56:30;16.13;;;4.60;;
82992;SDS011;72811;50.844;3.228;2023-10-13T12:58:56;13.65;;;4.18;;
82992;SDS011;72811;50.844;3.228;2023-10-13T13:01:22;19.30;;;5.15;;
82992;SDS011;72811;50.844;3.228;2023-10-13T13:04:07;18.08;;;5.35;;
82992;SDS011;72811;50.844;3.228;2023-10-13T13:06:48;17.52;;;5.22;;
82992;SDS011;72811;50.844;3.228;2023-10-13T13:11:51;17.88;;;6.00;;
82992;SDS011;72811;50.844;3.228;2023-10-13T13:14:24;15.77;;;5.38;;
82992;SDS011;72811;50.844;3.228;2023-10-13T13:16:58;21.02;;;5.45;;
82992;SDS011;72811;50.844;3.228;2023-10-13T13:19:30;14.45;;;5.05;;
82992;SDS011;72811;50.844;3.228;2023-10-13T13:22:02;13.32;;;5.13;;
82992;SDS011;72811;50.844;3.228;2023-10-13T13:24:34;19.63;;;5.57;;
82992;SDS011;72811;50.844;3.228;2023-10-13T13:27:01;18.30;;;6.18;;
82992;SDS011;72811;50.844;3.228;2023-10-13T13:29:31;15.05;;;5.45;;
82992;SDS011;72811;50.844;3.228;2023-10-13T13:31:58;17.98;;;5.43;;
82992;SDS011;72811;50.844;3.228;2023-10-13T13:34:25;13.60;;;5.68;;
82992;SDS011;72811;50.844;3.228;2023-10-13T13:36:51;17.08;;;5.90;;
82992;SDS011;72811;50.844;3.228;2023-10-13T13:39:19;14.43;;;6.50;;
82992;SDS011;72811;50.844;3.228;2023-10-13T13:41:53;20.73;;;6.18;;
82992;SDS011;72811;50.844;3.228;2023-10-13T13:44:23;17.10;;;5.80;;
82992;SDS011;72811;50.844;3.228;2023-10-13T13:46:57;13.68;;;6.32;;
82992;SDS011;72811;50.844;3.228;2023-10-13T13:49:23;16.02;;;5.28;;
82992;SDS011;72811;50.844;3.228;2023-10-13T13:52:09;15.65;;;6.47;;
82992;SDS011;72811;50.844;3.228;2023-10-13T13:54:36;17.08;;;5.50;;
82992;SDS011;72811;50.844;3.228;2023-10-13T13:57:07;13.52;;;5.75;;
82992;SDS011;72811;50.844;3.228;2023-10-13T13:59:33;11.20;;;4.85;;
82992;SDS011;72811;50.844;3.228;2023-10-13T14:02:00;14.88;;;6.20;;
82992;SDS011;72811;50.844;3.228;2023-10-13T14:04:33;17.73;;;5.40;;
82992;SDS011;72811;50.844;3.228;2023-10-13T14:06:58;13.90;;;5.22;;
82992;SDS011;72811;50.844;3.228;2023-10-13T14:09:24;11.00;;;5.32;;
82992;SDS011;72811;50.844;3.228;2023-10-13T14:12:05;17.63;;;6.35;;
82992;SDS011;72811;50.844;3.228;2023-10-13T14:15:09;18.88;;;5.88;;
82992;SDS011;72811;50.844;3.228;2023-10-13T14:17:49;13.80;;;4.88;;
82992;SDS011;72811;50.844;3.228;2023-10-13T14:20:15;15.98;;;6.00;;
82992;SDS011;72811;50.844;3.228;2023-10-13T14:22:45;22.67;;;7.10;;
82992;SDS011;72811;50.844;3.228;2023-10-13T14:25:16;24.83;;;6.38;;
82992;SDS011;72811;50.844;3.228;2023-10-13T14:27:42;15.13;;;5.70;;
82992;SDS011;72811;50.844;3.228;2023-10-13T14:30:08;13.35;;;5.40;;
82992;SDS011;72811;50.844;3.228;2023-10-13T14:32:41;16.40;;;5.90;;
82992;SDS011;72811;50.844;3.228;2023-10-13T14:35:07;18.75;;;6.13;;
82992;SDS011;72811;50.844;3.228;2023-10-13T14:37:40;18.05;;;5.15;;
82992;SDS011;72811;50.844;3.228;2023-10-13T14:40:06;21.05;;;5.35;;
82992;SDS011;72811;50.844;3.228;2023-10-13T14:42:38;17.50;;;5.40;;
82992;SDS011;72811;50.844;3.228;2023-10-13T14:45:06;16.52;;;5.18;;
82992;SDS011;72811;50.844;3.228;2023-10-13T14:47:41;16.00;;;5.05;;
82992;SDS011;72811;50.844;3.228;2023-10-13T14:50:08;21.45;;;6.00;;
82992;SDS011;72811;50.844;3.228;2023-10-13T14:52:53;26.63;;;5.95;;
82992;SDS011;72811;50.844;3.228;2023-10-13T14:55:19;19.13;;;5.40;;
82992;SDS011;72811;50.844;3.228;2023-10-13T14:57:48;15.35;;;4.78;;
82992;SDS011;72811;50.844;3.228;2023-10-13T15:00:15;16.00;;;5.28;;
82992;SDS011;72811;50.844;3.228;2023-10-13T15:02:50;14.70;;;4.90;;
82992;SDS011;72811;50.844;3.228;2023-10-13T15:05:16;15.50;;;5.40;;
82992;SDS011;72811;50.844;3.228;2023-10-13T15:07:45;14.63;;;4.90;;
82992;SDS011;72811;50.844;3.228;2023-10-13T15:10:14;17.60;;;6.30;;
82992;SDS011;72811;50.844;3.228;2023-10-13T15:12:42;12.00;;;4.60;;
82992;SDS011;72811;50.844;3.228;2023-10-13T15:15:11;12.20;;;4.95;;
82992;SDS011;72811;50.844;3.228;2023-10-13T15:17:44;14.40;;;4.82;;
82992;SDS011;72811;50.844;3.228;2023-10-13T15:20:15;20.67;;;5.10;;
82992;SDS011;72811;50.844;3.228;2023-10-13T15:22:44;18.00;;;5.13;;
82992;SDS011;72811;50.844;3.228;2023-10-13T15:25:13;12.88;;;4.63;;
82992;SDS011;72811;50.844;3.228;2023-10-13T15:27:46;18.77;;;5.38;;
82992;SDS011;72811;50.844;3.228;2023-10-13T15:30:22;15.43;;;5.18;;
82992;SDS011;72811;50.844;3.228;2023-10-13T15:32:56;18.95;;;5.20;;
82992;SDS011;72811;50.844;3.228;2023-10-13T15:35:22;25.50;;;5.55;;
82992;SDS011;72811;50.844;3.228;2023-10-13T15:37:53;15.18;;;4.75;;
82992;SDS011;72811;50.844;3.228;2023-10-13T15:40:20;13.73;;;4.72;;
82992;SDS011;72811;50.844;3.228;2023-10-13T15:42:46;16.65;;;5.10;;
82992;SDS011;72811;50.844;3.228;2023-10-13T15:45:15;15.02;;;4.72;;
82992;SDS011;72811;50.844;3.228;2023-10-13T15:47:44;14.55;;;5.03;;
82992;SDS011;72811;50.844;3.228;2023-10-13T15:50:11;18.88;;;5.25;;
82992;SDS011;72811;50.844;3.228;2023-10-13T15:52:42;18.08;;;5.43;;
82992;SDS011;72811;50.844;3.228;2023-10-13T15:55:15;16.98;;;5.65;;
82992;SDS011;72811;50.844;3.228;2023-10-13T15:57:46;16.55;;;4.38;;
82992;SDS011;72811;50.844;3.228;2023-10-13T16:03:06;16.60;;;5.05;;
82992;SDS011;72811;50.844;3.228;2023-10-13T16:05:38;23.92;;;5.18;;
82992;SDS011;72811;50.844;3.228;2023-10-13T16:08:07;23.37;;;5.50;;
82992;SDS011;72811;50.844;3.228;2023-10-13T16:10:36;15.77;;;5.60;;
82992;SDS011;72811;50.844;3.228;2023-10-13T16:13:03;25.20;;;6.70;;
82992;SDS011;72811;50.844;3.228;2023-10-13T16:18:08;20.55;;;6.43;;